Time;durP1;ratioP1;P1;durP2;ratioP2;P2;SDS_P1;SDS_P2;PMS_P1;PMS_P2;Temp;Humidity;BMP_temperature;BMP_pressure;BME280_temperature;BME280_humidity;BME280_pressure;Samples;Min_cycle;Max_cycle;Signal;HPM_P1;HPM_P2
2022/01/27 00:01:16;;;;;;;43.65;13.15;;;5.20;99.90;;;;;;5007088;28;20089;-73
2022/01/27 00:04:01;;;;;;;32.53;9.65;;;5.20;99.90;;;;;;5007080;28;20037;-72
2022/01/27 00:06:27;;;;;;;33.80;11.85;;;5.30;99.90;;;;;;5007190;28;20165;-73
2022/01/27 00:08:59;;;;;;;39.08;13.77;;;5.30;99.90;;;;;;5006881;28;20035;-74
2022/01/27 00:11:24;;;;;;;36.20;13.07;;;5.20;99.90;;;;;;5007033;28;20022;-71
2022/01/27 00:14:01;;;;;;;48.47;13.65;;;5.20;99.90;;;;;;5006823;28;20037;-73
2022/01/27 00:16:30;;;;;;;29.13;10.23;;;5.20;99.90;;;;;;5006641;28;20019;-71
2022/01/27 00:18:56;;;;;;;34.53;12.35;;;5.30;99.90;;;;;;5006894;28;20045;-71
2022/01/27 00:21:24;;;;;;;38.53;13.55;;;5.20;99.90;;;;;;4989071;28;20046;-72
2022/01/27 00:23:51;;;;;;;30.50;11.27;;;5.30;99.90;;;;;;5006665;28;20078;-71
2022/01/27 00:26:18;;;;;;;44.70;13.35;;;5.30;99.90;;;;;;5006405;28;20030;-72
2022/01/27 00:28:46;;;;;;;39.45;12.60;;;5.30;99.90;;;;;;5006427;28;20031;-71
2022/01/27 00:31:12;;;;;;;42.03;12.55;;;5.30;99.90;;;;;;5006427;28;20034;-72
2022/01/27 00:33:38;;;;;;;39.60;12.57;;;5.40;99.90;;;;;;5006440;28;20031;-71
2022/01/27 00:36:05;;;;;;;29.52;11.88;;;5.30;99.90;;;;;;5006782;28;20033;-72
2022/01/27 00:38:31;;;;;;;39.50;13.02;;;5.30;99.90;;;;;;5006331;28;20034;-73
2022/01/27 00:40:57;;;;;;;29.60;10.82;;;5.30;99.90;;;;;;5006602;28;20034;-74
2022/01/27 00:43:23;;;;;;;31.55;11.90;;;5.30;99.90;;;;;;4988767;28;20058;-74
2022/01/27 00:45:48;;;;;;;33.78;11.93;;;5.20;99.90;;;;;;4988605;28;20042;-73
2022/01/27 00:48:17;;;;;;;34.67;11.88;;;5.30;99.90;;;;;;5006211;28;20078;-73
2022/01/27 00:50:43;;;;;;;33.88;12.55;;;5.30;99.90;;;;;;5006208;28;20089;-72
2022/01/27 00:55:50;;;;;;;31.73;12.32;;;5.30;99.90;;;;;;5006020;28;20602;-72
2022/01/27 01:01:17;;;;;;;31.98;12.40;;;5.30;99.90;;;;;;4983309;28;20057;-73
2022/01/27 01:03:46;;;;;;;27.02;11.15;;;5.30;99.90;;;;;;5004165;28;20163;-74
2022/01/27 01:19:32;;;;;;;30.30;10.77;;;5.30;99.90;;;;;;5005782;28;20038;-75
2022/01/27 01:29:23;;;;;;;38.28;11.77;;;5.30;99.90;;;;;;5004320;28;20045;-73
2022/01/27 01:30:45;;;;;;;22.63;8.82;;;5.40;99.90;;;;;;5005483;28;20061;-73
2022/01/27 01:33:08;;;;;;;33.85;11.30;;;5.30;99.90;;;;;;5004872;28;20026;-74
2022/01/27 01:35:52;;;;;;;27.17;8.43;;;5.40;99.90;;;;;;5005720;28;20034;-71
2022/01/27 01:38:25;;;;;;;31.65;10.23;;;5.30;99.90;;;;;;4987644;28;20026;-73
2022/01/27 01:40:53;;;;;;;30.40;9.70;;;5.30;99.90;;;;;;5005355;28;20089;-73
2022/01/27 01:43:20;;;;;;;30.25;10.32;;;5.30;99.90;;;;;;5005383;28;20117;-72
2022/01/27 01:45:47;;;;;;;29.98;9.73;;;5.30;99.90;;;;;;5005243;28;20030;-73
2022/01/27 01:48:15;;;;;;;34.55;11.55;;;5.30;99.90;;;;;;5005160;28;20109;-71
2022/01/27 01:50:41;;;;;;;34.72;11.75;;;5.30;99.90;;;;;;5005009;28;20037;-74
2022/01/27 01:53:07;;;;;;;27.98;9.77;;;5.30;99.90;;;;;;5004989;28;20054;-73
2022/01/27 01:55:33;;;;;;;28.35;10.75;;;5.30;99.90;;;;;;5005240;28;20036;-73
2022/01/27 01:57:59;;;;;;;27.23;10.98;;;5.30;99.90;;;;;;5005074;28;20030;-72
2022/01/27 02:00:27;;;;;;;29.25;10.63;;;5.30;99.90;;;;;;5004908;28;20042;-73
2022/01/27 02:02:53;;;;;;;29.25;10.88;;;5.30;99.90;;;;;;5005381;28;20085;-71
2022/01/27 02:05:27;;;;;;;25.40;9.55;;;5.30;99.90;;;;;;5005106;28;20046;-73
2022/01/27 02:19:25;;;;;;;38.67;11.35;;;5.30;99.90;;;;;;5008845;28;20493;-73
2022/01/27 02:21:53;;;;;;;28.38;10.18;;;5.30;99.90;;;;;;4990848;28;20030;-73
2022/01/27 02:24:20;;;;;;;30.40;10.98;;;5.30;99.90;;;;;;5008137;28;20041;-72
2022/01/27 02:26:50;;;;;;;26.45;8.48;;;5.30;99.90;;;;;;5008755;28;20387;-74
2022/01/27 02:29:17;;;;;;;27.05;10.13;;;5.40;99.90;;;;;;4991105;28;20030;-71
2022/01/27 02:31:43;;;;;;;24.27;10.32;;;5.30;99.90;;;;;;5008708;28;20029;-73
2022/01/27 02:34:08;;;;;;;43.50;13.27;;;5.30;99.90;;;;;;5008163;28;20030;-71
2022/01/27 02:36:34;;;;;;;42.50;10.93;;;5.40;99.90;;;;;;4991203;28;20031;-73
2022/01/27 02:39:03;;;;;;;35.65;12.20;;;5.30;99.90;;;;;;5008623;28;20037;-71
2022/01/27 02:41:35;;;;;;;41.33;10.70;;;5.40;99.90;;;;;;5008649;28;20069;-70
2022/01/27 02:44:01;;;;;;;27.95;10.00;;;5.40;99.90;;;;;;5008865;28;20089;-73
2022/01/27 02:46:36;;;;;;;29.50;11.15;;;5.30;99.90;;;;;;5008621;28;20038;-73
2022/01/27 02:49:03;;;;;;;34.88;11.52;;;5.40;99.90;;;;;;5008533;28;20031;-77
2022/01/27 02:51:29;;;;;;;36.15;11.27;;;5.40;99.90;;;;;;5008545;28;20026;-73
2022/01/27 02:53:57;;;;;;;29.40;12.25;;;5.40;99.90;;;;;;5007168;28;20061;-71
2022/01/27 02:56:22;;;;;;;29.80;10.20;;;5.50;99.90;;;;;;4990734;28;20037;-72
2022/01/27 02:58:48;;;;;;;32.80;10.57;;;5.40;99.90;;;;;;5008323;28;20030;-72
2022/01/27 03:01:18;;;;;;;29.10;11.25;;;5.40;99.90;;;;;;5008289;28;20066;-72
2022/01/27 03:03:44;;;;;;;23.00;8.60;;;5.40;99.90;;;;;;5008320;28;20033;-74
2022/01/27 03:06:09;;;;;;;32.67;10.07;;;5.30;99.90;;;;;;5008044;28;20109;-73
2022/01/27 03:08:35;;;;;;;29.55;10.77;;;5.40;99.90;;;;;;5008106;28;20030;-76
2022/01/27 03:11:06;;;;;;;23.58;8.77;;;5.40;99.90;;;;;;5008701;28;20043;-76
2022/01/27 03:13:32;;;;;;;38.92;11.10;;;5.40;99.90;;;;;;4990695;28;20037;-75
2022/01/27 03:15:58;;;;;;;25.75;10.25;;;5.50;99.90;;;;;;5008274;28;20030;-74
2022/01/27 03:18:24;;;;;;;35.85;11.68;;;5.40;99.90;;;;;;5007879;28;20080;-75
2022/01/27 03:20:49;;;;;;;29.15;11.55;;;5.40;99.90;;;;;;5007048;28;20070;-74
2022/01/27 03:23:15;;;;;;;27.85;9.40;;;5.40;99.90;;;;;;4990065;28;20479;-74
2022/01/27 03:25:41;;;;;;;20.98;9.00;;;5.40;99.90;;;;;;5007719;28;20035;-71
2022/01/27 03:28:09;;;;;;;27.95;10.30;;;5.40;99.90;;;;;;5007830;28;20033;-73
2022/01/27 03:30:35;;;;;;;32.65;11.68;;;5.40;99.90;;;;;;5007914;28;20023;-74
2022/01/27 03:33:01;;;;;;;21.15;9.02;;;5.40;99.90;;;;;;5007847;28;20098;-73
2022/01/27 03:35:26;;;;;;;28.75;10.27;;;5.40;99.90;;;;;;5007616;28;20068;-72
2022/01/27 03:37:52;;;;;;;23.55;8.82;;;5.40;99.90;;;;;;4989993;28;20041;-74
2022/01/27 03:40:17;;;;;;;38.53;11.52;;;5.40;99.90;;;;;;4989900;28;20068;-72
2022/01/27 03:42:50;;;;;;;29.00;10.70;;;5.40;99.90;;;;;;5007670;28;20090;-73
2022/01/27 03:45:15;;;;;;;24.38;9.10;;;5.50;99.90;;;;;;5007400;28;20506;-73
2022/01/27 03:47:41;;;;;;;25.30;9.25;;;5.50;99.90;;;;;;5007439;28;20031;-72
2022/01/27 03:50:07;;;;;;;23.23;9.65;;;5.40;99.90;;;;;;5007438;28;20061;-72
2022/01/27 03:52:33;;;;;;;26.92;9.95;;;5.40;99.90;;;;;;4989622;28;20100;-73
2022/01/27 03:54:59;;;;;;;32.15;10.05;;;5.40;99.90;;;;;;5006746;28;20038;-72
2022/01/27 03:57:24;;;;;;;25.02;9.55;;;5.40;99.90;;;;;;5007187;28;20027;-74
2022/01/27 03:59:50;;;;;;;25.17;8.98;;;5.40;99.90;;;;;;5007271;28;20631;-74
2022/01/27 04:02:16;;;;;;;26.90;10.82;;;5.40;99.90;;;;;;5007065;28;20026;-72
2022/01/27 04:04:42;;;;;;;31.00;9.88;;;5.40;99.90;;;;;;5006101;28;20046;-75
2022/01/27 04:07:08;;;;;;;31.17;11.52;;;5.40;99.90;;;;;;5006961;28;20034;-72
2022/01/27 04:09:33;;;;;;;24.77;10.38;;;5.40;99.90;;;;;;5007169;28;20034;-74
2022/01/27 04:11:59;;;;;;;34.80;9.85;;;5.40;99.90;;;;;;4989346;28;20045;-71
2022/01/27 04:14:25;;;;;;;32.95;10.30;;;5.40;99.90;;;;;;5006752;28;20026;-72
2022/01/27 04:16:50;;;;;;;32.03;9.55;;;5.30;99.90;;;;;;5006750;28;20034;-71
2022/01/27 04:19:16;;;;;;;21.83;9.15;;;5.30;99.90;;;;;;5006837;28;20471;-71
2022/01/27 04:21:41;;;;;;;39.95;11.20;;;5.30;99.90;;;;;;5006695;28;20038;-73
2022/01/27 04:24:10;;;;;;;27.23;10.07;;;5.20;99.90;;;;;;5006753;28;20041;-75
2022/01/27 04:26:45;;;;;;;29.98;10.00;;;5.20;99.90;;;;;;5006666;28;20159;-73
2022/01/27 04:29:12;;;;;;;24.70;9.65;;;5.30;99.90;;;;;;5006803;28;20029;-73
2022/01/27 04:31:40;;;;;;;36.05;9.52;;;5.20;99.90;;;;;;5006509;28;20035;-73
2022/01/27 04:34:06;;;;;;;32.22;11.90;;;5.10;99.90;;;;;;5006731;28;20033;-71
2022/01/27 04:36:34;;;;;;;26.02;9.52;;;5.10;99.90;;;;;;5006675;28;20045;-73
2022/01/27 04:39:15;;;;;;;28.52;10.27;;;5.00;99.90;;;;;;4988809;28;20035;-71
2022/01/27 04:49:06;;;;;;;24.20;8.75;;;4.90;99.90;;;;;;5006049;28;20034;-78
2022/01/27 04:51:33;;;;;;;32.58;10.45;;;4.90;99.90;;;;;;4988661;28;20033;-75
2022/01/27 04:54:09;;;;;;;40.85;12.73;;;4.80;99.90;;;;;;5006053;28;20057;-72
2022/01/27 04:56:37;;;;;;;28.77;10.23;;;4.80;99.90;;;;;;5006151;28;20058;-75
2022/01/27 04:59:09;;;;;;;37.42;12.68;;;4.80;99.90;;;;;;4988804;28;20056;-73
2022/01/27 05:01:48;;;;;;;32.22;11.38;;;4.80;99.90;;;;;;5006176;28;20038;-75
2022/01/27 05:04:17;;;;;;;39.88;14.10;;;4.70;99.90;;;;;;5006103;28;20022;-73
2022/01/27 05:06:43;;;;;;;35.65;11.48;;;4.70;99.90;;;;;;4988207;28;20035;-73
2022/01/27 05:09:09;;;;;;;40.03;13.13;;;4.70;99.90;;;;;;5005796;28;20108;-74
2022/01/27 05:11:49;;;;;;;38.33;11.68;;;4.80;99.90;;;;;;5006198;28;20038;-77
2022/01/27 05:14:19;;;;;;;26.83;9.75;;;4.80;99.90;;;;;;5006207;28;20049;-76
2022/01/27 05:16:45;;;;;;;35.53;10.75;;;4.90;99.90;;;;;;5005216;28;20046;-73
2022/01/27 05:19:11;;;;;;;43.03;12.88;;;4.70;99.90;;;;;;5005835;28;20026;-73
2022/01/27 05:21:37;;;;;;;31.33;10.52;;;4.70;99.90;;;;;;4986177;28;20050;-74
2022/01/27 05:24:04;;;;;;;45.10;11.82;;;4.70;99.90;;;;;;4975088;28;20061;-74
2022/01/27 05:26:30;;;;;;;21.55;7.97;;;4.70;99.90;;;;;;5005699;28;20109;-72
2022/01/27 05:28:56;;;;;;;31.73;10.95;;;4.70;99.90;;;;;;5005734;28;20118;-72
2022/01/27 05:31:21;;;;;;;36.45;13.13;;;4.70;99.90;;;;;;5005537;28;20034;-74
2022/01/27 05:33:47;;;;;;;31.85;11.18;;;4.60;99.90;;;;;;5003989;28;20049;-73
2022/01/27 05:36:13;;;;;;;37.58;10.63;;;4.70;99.90;;;;;;5004703;28;20033;-73
2022/01/27 05:38:39;;;;;;;29.30;10.43;;;4.70;99.90;;;;;;5005166;28;20030;-74
2022/01/27 05:41:06;;;;;;;40.88;12.23;;;4.60;99.90;;;;;;5004915;28;20527;-73
2022/01/27 05:43:32;;;;;;;36.85;11.85;;;4.60;99.90;;;;;;5004499;28;20037;-74
2022/01/27 05:45:58;;;;;;;32.42;12.75;;;4.60;99.90;;;;;;5005261;28;20041;-73
2022/01/27 05:48:24;;;;;;;30.23;10.40;;;4.60;99.90;;;;;;5003821;28;20028;-73
2022/01/27 05:50:50;;;;;;;26.17;8.20;;;4.60;99.90;;;;;;5004664;28;20037;-73
2022/01/27 05:53:15;;;;;;;34.72;10.98;;;4.50;99.90;;;;;;5003635;28;20065;-74
2022/01/27 05:55:41;;;;;;;26.23;10.23;;;4.50;99.90;;;;;;5004647;28;20105;-75
2022/01/27 05:58:07;;;;;;;35.30;12.00;;;4.50;99.90;;;;;;5005030;28;20050;-72
2022/01/27 06:00:33;;;;;;;37.30;10.98;;;4.50;99.90;;;;;;5004811;28;20106;-75
2022/01/27 06:02:59;;;;;;;22.35;9.20;;;4.50;99.90;;;;;;4986748;28;20069;-74
2022/01/27 06:05:26;;;;;;;22.70;7.72;;;4.50;99.90;;;;;;5003566;28;20471;-71
2022/01/27 06:07:52;;;;;;;46.13;10.95;;;4.50;99.90;;;;;;5004419;28;20053;-73
2022/01/27 06:10:18;;;;;;;25.95;9.27;;;4.50;99.90;;;;;;5004387;28;20029;-73
2022/01/27 06:12:49;;;;;;;26.70;8.30;;;4.50;99.90;;;;;;5004621;28;20391;-73
2022/01/27 06:15:15;;;;;;;31.65;10.93;;;4.50;99.90;;;;;;4986677;28;20085;-73
2022/01/27 06:17:41;;;;;;;27.80;10.77;;;4.50;99.90;;;;;;5003982;28;20030;-74
2022/01/27 06:20:08;;;;;;;21.35;7.32;;;4.50;99.90;;;;;;5004826;28;20113;-77
2022/01/27 06:22:33;;;;;;;17.73;8.32;;;4.50;99.90;;;;;;5004736;28;20097;-74
2022/01/27 06:24:59;;;;;;;37.97;11.40;;;4.40;99.90;;;;;;5004639;28;20034;-76
2022/01/27 06:27:25;;;;;;;63.40;12.50;;;4.40;99.90;;;;;;5004633;28;20054;-74
2022/01/27 06:29:51;;;;;;;37.65;12.23;;;4.40;99.90;;;;;;5004659;28;20035;-76
2022/01/27 06:32:16;;;;;;;37.35;11.57;;;4.40;99.90;;;;;;4986897;28;20099;-75
2022/01/27 06:34:42;;;;;;;30.60;10.63;;;4.40;99.90;;;;;;5003653;28;20116;-83
2022/01/27 06:37:08;;;;;;;22.65;8.02;;;4.40;99.90;;;;;;5004788;28;20062;-79
2022/01/27 06:39:34;;;;;;;30.92;10.20;;;4.40;99.90;;;;;;5003694;28;20041;-78
2022/01/27 06:42:01;;;;;;;35.53;10.52;;;4.40;99.90;;;;;;5004739;28;20033;-81
2022/01/27 06:44:27;;;;;;;39.33;12.32;;;4.40;99.90;;;;;;4986880;28;20031;-79
2022/01/27 06:46:53;;;;;;;29.48;11.73;;;4.40;99.90;;;;;;4986355;28;20746;-79
2022/01/27 06:49:18;;;;;;;49.45;11.75;;;4.40;99.90;;;;;;4986874;28;20123;-82
2022/01/27 06:51:45;;;;;;;37.65;12.40;;;4.40;99.90;;;;;;5002483;28;20026;-83
2022/01/27 06:54:11;;;;;;;39.38;11.40;;;4.40;99.90;;;;;;5004085;28;20042;-79
2022/01/27 06:56:38;;;;;;;30.20;10.50;;;4.40;99.90;;;;;;4989982;28;20026;-79
2022/01/27 06:59:04;;;;;;;24.17;8.85;;;4.50;99.90;;;;;;4990179;28;20091;-77
2022/01/27 07:01:30;;;;;;;36.53;11.25;;;4.40;99.90;;;;;;5008287;28;20035;-77
2022/01/27 07:03:55;;;;;;;32.83;9.68;;;4.50;99.90;;;;;;4989955;28;20425;-77
2022/01/27 07:06:21;;;;;;;33.50;11.80;;;4.40;99.90;;;;;;5000404;28;20117;-82
2022/01/27 07:08:47;;;;;;;37.00;11.52;;;4.60;99.90;;;;;;4977876;28;20031;-84
2022/01/27 07:11:13;;;;;;;35.25;10.65;;;4.50;99.90;;;;;;4998979;28;20055;-78
2022/01/27 07:13:47;;;;;;;39.47;10.52;;;4.50;99.90;;;;;;4976912;28;20038;-76
2022/01/27 07:16:13;;;;;;;;;;;4.50;99.90;;;;;;4986935;28;20038;-76
2022/01/27 07:18:38;;;;;;;39.20;11.63;;;4.50;99.90;;;;;;4990441;28;19910;-76
2022/01/27 07:21:05;;;;;;;23.60;9.07;;;4.50;99.90;;;;;;5006674;28;20173;-77
2022/01/27 07:23:31;;;;;;;29.70;10.05;;;4.50;99.90;;;;;;5007361;28;20027;-76
2022/01/27 07:25:56;;;;;;;25.85;8.73;;;4.50;99.90;;;;;;5006716;28;20087;-75
2022/01/27 07:28:22;;;;;;;30.73;10.70;;;4.50;99.90;;;;;;5006206;28;20031;-78
2022/01/27 07:30:48;;;;;;;23.50;10.20;;;4.50;99.90;;;;;;5007536;28;20038;-77
2022/01/27 07:33:17;;;;;;;36.75;9.52;;;4.50;99.90;;;;;;4988535;28;20030;-78
2022/01/27 07:35:43;;;;;;;28.27;9.55;;;4.50;99.90;;;;;;4988381;28;20387;-76
2022/01/27 07:38:09;;;;;;;24.25;8.23;;;4.60;99.90;;;;;;4980062;28;20035;-76
2022/01/27 07:40:36;;;;;;;25.33;9.13;;;4.50;99.90;;;;;;4995693;28;20038;-74
2022/01/27 07:43:03;;;;;;;21.75;7.53;;;4.60;99.90;;;;;;4989504;28;20386;-74
2022/01/27 07:45:29;;;;;;;24.02;9.18;;;4.60;99.90;;;;;;5007355;28;20053;-77
2022/01/27 07:47:57;;;;;;;28.17;8.10;;;4.60;99.90;;;;;;4989630;28;20050;-78
2022/01/27 07:50:26;;;;;;;19.55;7.90;;;4.60;99.90;;;;;;4989238;28;20913;-79
2022/01/27 07:52:52;;;;;;;17.20;7.38;;;4.60;99.90;;;;;;4986208;28;20109;-74
2022/01/27 07:55:17;;;;;;;23.70;8.30;;;4.60;99.90;;;;;;4975181;28;20031;-79
2022/01/27 07:57:43;;;;;;;20.38;6.97;;;4.70;99.90;;;;;;4986703;28;20035;-81
2022/01/27 08:00:12;;;;;;;16.85;6.05;;;4.70;99.90;;;;;;4986977;28;20047;-76
2022/01/27 08:02:38;;;;;;;23.13;6.55;;;4.70;99.90;;;;;;5002003;28;20125;-78
2022/01/27 08:05:04;;;;;;;22.88;7.65;;;4.70;99.90;;;;;;4987313;28;20026;-76
2022/01/27 08:07:30;;;;;;;17.33;5.97;;;4.80;99.90;;;;;;4985061;28;20026;-76
2022/01/27 08:09:55;;;;;;;16.63;5.72;;;4.80;99.90;;;;;;4986430;28;20102;-76
2022/01/27 08:12:22;;;;;;;15.52;6.82;;;4.80;99.90;;;;;;4987500;28;20026;-75
2022/01/27 08:14:47;;;;;;;13.80;5.40;;;4.80;99.90;;;;;;4987024;28;20031;-78
2022/01/27 08:17:14;;;;;;;16.63;6.72;;;4.90;99.90;;;;;;4986167;28;20372;-76
2022/01/27 08:19:40;;;;;;;11.43;4.95;;;4.90;99.90;;;;;;4986040;28;20035;-77
2022/01/27 08:22:10;;;;;;;16.20;5.90;;;4.90;99.90;;;;;;4987368;28;20042;-75
2022/01/27 08:24:37;;;;;;;16.73;6.00;;;4.90;99.90;;;;;;4987092;28;20360;-74
2022/01/27 08:27:07;;;;;;;18.35;5.85;;;4.90;99.90;;;;;;4985586;28;20545;-77
2022/01/27 08:29:43;;;;;;;27.05;7.28;;;4.90;99.90;;;;;;4970458;28;20074;-76
2022/01/27 08:32:15;;;;;;;14.57;5.47;;;5.00;99.90;;;;;;4985164;28;20035;-78
2022/01/27 08:34:42;;;;;;;14.88;5.05;;;5.00;99.90;;;;;;4985957;28;20495;-76
2022/01/27 08:37:17;;;;;;;15.77;5.80;;;5.00;99.90;;;;;;4986087;28;20062;-79
2022/01/27 08:39:46;;;;;;;11.20;4.35;;;5.00;99.90;;;;;;4986827;28;20038;-81
2022/01/27 08:42:12;;;;;;;17.70;5.47;;;5.00;99.90;;;;;;4986518;28;20031;-81
2022/01/27 08:44:38;;;;;;;21.02;7.05;;;5.00;99.90;;;;;;4986369;28;20087;-79
2022/01/27 08:47:18;;;;;;;14.70;5.55;;;5.10;99.90;;;;;;4985402;28;20029;-78
2022/01/27 08:49:47;;;;;;;12.40;5.00;;;5.10;99.90;;;;;;4985726;28;20049;-76
2022/01/27 08:52:13;;;;;;;11.55;4.60;;;5.10;99.90;;;;;;4997445;28;20042;-73
2022/01/27 08:54:39;;;;;;;15.30;5.97;;;5.20;99.90;;;;;;5001118;28;20047;-78
2022/01/27 08:57:13;;;;;;;15.93;5.10;;;5.20;99.90;;;;;;4989383;28;20050;-77
2022/01/27 08:59:39;;;;;;;14.18;6.28;;;5.20;99.90;;;;;;5005010;28;20053;-78
2022/01/27 09:02:05;;;;;;;13.90;5.97;;;5.20;99.90;;;;;;5005246;28;20030;-75
2022/01/27 09:04:30;;;;;;;14.15;5.43;;;5.20;99.90;;;;;;5004714;28;20169;-77
2022/01/27 09:06:56;;;;;;;15.18;5.32;;;5.30;99.90;;;;;;4978524;28;20034;-78
2022/01/27 09:09:21;;;;;;;17.27;5.80;;;5.30;99.90;;;;;;5000021;28;20053;-79
2022/01/27 09:11:47;;;;;;;9.65;4.25;;;5.30;99.90;;;;;;4986655;28;20022;-72
2022/01/27 09:14:14;;;;;;;8.75;4.70;;;5.30;99.90;;;;;;5005519;28;20053;-79
2022/01/27 09:16:41;;;;;;;17.30;5.30;;;5.40;99.90;;;;;;4984566;28;20023;-78
2022/01/27 09:19:07;;;;;;;13.82;4.90;;;5.40;99.90;;;;;;4999719;28;20038;-74
2022/01/27 09:21:43;;;;;;;17.08;5.82;;;5.30;99.90;;;;;;4985883;28;20038;-79
2022/01/27 09:24:14;;;;;;;15.52;5.32;;;5.50;99.90;;;;;;4976800;28;20042;-79
2022/01/27 09:29:14;;;;;;;13.15;5.43;;;5.60;99.90;;;;;;4990940;28;20117;-85
2022/01/27 09:31:40;;;;;;;19.10;5.22;;;5.50;99.90;;;;;;5004759;28;20094;-75
2022/01/27 09:34:06;;;;;;;16.63;5.68;;;5.60;99.90;;;;;;5001526;28;20062;-80
2022/01/27 09:36:33;;;;;;;14.13;5.30;;;5.60;99.90;;;;;;5000941;28;20070;-79
2022/01/27 09:38:59;;;;;;;12.85;4.00;;;5.70;99.90;;;;;;5002547;28;20038;-80
2022/01/27 09:41:27;;;;;;;13.80;4.43;;;5.70;99.90;;;;;;4987664;28;20093;-79
2022/01/27 09:43:53;;;;;;;9.90;4.07;;;5.80;99.90;;;;;;4987060;28;20022;-81
2022/01/27 09:46:21;;;;;;;11.30;4.88;;;5.80;99.90;;;;;;4987547;28;20077;-84
2022/01/27 09:48:49;;;;;;;11.10;4.85;;;5.80;99.90;;;;;;5004162;28;20554;-84
2022/01/27 09:51:27;;;;;;;9.20;4.18;;;5.90;99.90;;;;;;4982609;28;20019;-83
2022/01/27 09:54:02;;;;;;;10.57;3.75;;;5.90;99.90;;;;;;4974890;28;20042;-81
2022/01/27 09:56:27;;;;;;;6.93;3.42;;;5.90;99.90;;;;;;4973050;28;20042;-75
2022/01/27 09:58:55;;;;;;;9.35;3.70;;;6.00;99.90;;;;;;4996790;28;20034;-77
2022/01/27 10:01:21;;;;;;;13.43;3.88;;;6.00;99.90;;;;;;4999008;28;20054;-80
2022/01/27 10:03:56;;;;;;;9.77;4.15;;;6.00;99.90;;;;;;4986920;28;20030;-81
2022/01/27 10:06:28;;;;;;;10.20;3.90;;;6.00;99.90;;;;;;5010827;28;20430;-79
2022/01/27 10:09:12;;;;;;;11.25;3.90;;;6.00;99.90;;;;;;4987303;28;20029;-80
2022/01/27 10:11:47;;;;;;;7.85;4.38;;;6.10;99.90;;;;;;4987974;28;20169;-84
2022/01/27 10:14:23;;;;;;;12.00;4.70;;;6.10;99.90;;;;;;4988939;28;20039;-82
2022/01/27 10:16:53;;;;;;;9.02;3.90;;;6.10;99.90;;;;;;4987871;28;20034;-80
2022/01/27 10:19:20;;;;;;;11.43;5.07;;;6.10;99.90;;;;;;4983346;28;20039;-78
2022/01/27 10:21:47;;;;;;;8.75;5.25;;;6.10;99.90;;;;;;4988916;28;20034;-81
2022/01/27 10:24:24;;;;;;;17.33;5.05;;;6.10;99.90;;;;;;5008309;28;20027;-79
2022/01/27 10:27:17;;;;;;;14.68;5.28;;;6.10;99.90;;;;;;5005484;28;20010;-81
2022/01/27 10:30:05;;;;;;;12.82;4.78;;;6.20;99.90;;;;;;4991569;28;20130;-77
2022/01/27 10:32:42;;;;;;;14.45;5.68;;;6.20;99.90;;;;;;4999955;28;20027;-81
2022/01/27 10:35:09;;;;;;;17.33;5.07;;;6.20;99.90;;;;;;4972702;28;20037;-86
2022/01/27 10:37:54;;;;;;;16.48;6.25;;;6.30;99.90;;;;;;4972026;28;20039;-82
2022/01/27 10:40:42;;;;;;;15.38;7.22;;;6.30;99.90;;;;;;4991592;28;20054;-74
2022/01/27 10:43:20;;;;;;;12.32;5.05;;;6.40;99.90;;;;;;4992017;28;20569;-79
2022/01/27 10:46:11;;;;;;;30.92;6.95;;;6.40;99.90;;;;;;5010298;28;20026;-79
2022/01/27 10:48:52;;;;;;;13.63;4.88;;;6.50;99.90;;;;;;4992823;28;20094;-76
2022/01/27 10:51:44;;;;;;;16.38;6.00;;;6.50;99.90;;;;;;5008352;28;20030;-79
2022/01/27 10:54:20;;;;;;;16.95;6.38;;;6.60;99.90;;;;;;5008522;28;20042;-77
2022/01/27 10:56:47;;;;;;;22.38;5.82;;;6.60;99.90;;;;;;5009185;28;20114;-81
2022/01/27 10:59:17;;;;;;;15.15;5.30;;;6.60;99.90;;;;;;4991084;28;20088;-87
2022/01/27 11:01:48;;;;;;;10.15;4.43;;;6.70;99.90;;;;;;4990350;28;20042;-79
2022/01/27 11:04:17;;;;;;;13.80;5.40;;;6.70;99.90;;;;;;5009166;28;20029;-82
2022/01/27 11:06:58;;;;;;;23.02;5.43;;;6.70;99.90;;;;;;4991444;28;20030;-81
2022/01/27 11:09:25;;;;;;;10.60;4.35;;;6.80;99.90;;;;;;4991087;28;20088;-80
2022/01/27 11:12:06;;;;;;;17.65;5.28;;;7.00;99.90;;;;;;5007914;28;20471;-86
2022/01/27 11:14:42;;;;;;;13.68;4.57;;;6.90;99.90;;;;;;5008517;28;20038;-82
2022/01/27 11:17:19;;;;;;;15.70;5.93;;;6.90;99.90;;;;;;4989559;28;20027;-87
2022/01/27 11:22:47;;;;;;;15.85;5.03;;;6.90;99.90;;;;;;4990113;28;20494;-82
2022/01/27 11:27:46;;;;;;;17.58;5.10;;;7.00;99.90;;;;;;5007500;28;20057;-79
2022/01/27 11:30:44;;;;;;;15.40;4.30;;;7.00;99.90;;;;;;4990744;28;20026;-81
2022/01/27 11:33:17;;;;;;;12.65;4.72;;;7.10;99.90;;;;;;4990851;28;20030;-77
2022/01/27 11:36:08;;;;;;;18.77;5.82;;;7.10;99.90;;;;;;4991574;28;20064;-84
2022/01/27 11:38:42;;;;;;;14.50;4.80;;;7.10;99.90;;;;;;5000601;28;20033;-83
2022/01/27 11:41:48;;;;;;;8.90;4.68;;;7.10;99.90;;;;;;5007063;28;20030;-80
2022/01/27 11:44:37;;;;;;;10.85;4.68;;;7.20;99.90;;;;;;4980498;28;20098;-83
2022/01/27 11:47:16;;;;;;;21.30;5.38;;;7.20;99.90;;;;;;4990171;28;20054;-80
2022/01/27 11:49:56;;;;;;;20.27;4.18;;;7.30;99.90;;;;;;5007029;28;20031;-76
2022/01/27 11:52:28;;;;;;;13.68;4.00;;;7.30;99.90;;;;;;4988731;28;20029;-82
2022/01/27 11:55:25;;;;;;;10.50;4.35;;;7.40;99.90;;;;;;4989730;28;20030;-81
2022/01/27 11:57:54;;;;;;;17.40;4.22;;;7.40;99.90;;;;;;4982410;28;20046;-80
2022/01/27 12:00:28;;;;;;;6.78;3.33;;;7.50;99.90;;;;;;4989998;28;20034;-79
2022/01/27 12:03:03;;;;;;;12.25;3.28;;;7.50;99.90;;;;;;4989907;28;20027;-83
2022/01/27 12:05:34;;;;;;;13.10;3.40;;;7.60;99.90;;;;;;4989673;28;20026;-83
2022/01/27 12:08:12;;;;;;;20.65;4.03;;;7.70;99.90;;;;;;4989348;28;20048;-82
2022/01/27 12:10:52;;;;;;;17.35;4.00;;;7.70;99.90;;;;;;4989462;28;20026;-79
2022/01/27 12:13:25;;;;;;;8.88;3.85;;;7.80;99.90;;;;;;4988654;28;20034;-85
2022/01/27 12:18:59;;;;;;;7.28;3.40;;;7.80;99.90;;;;;;5006006;28;20125;-86
2022/01/27 12:21:53;;;;;;;15.25;3.08;;;7.90;99.90;;;;;;4988575;28;20073;-85
2022/01/27 12:24:27;;;;;;;11.60;4.28;;;8.20;99.90;;;;;;4988681;28;20505;-78
2022/01/27 12:26:56;;;;;;;10.55;3.67;;;8.20;99.90;;;;;;4988334;28;20037;-83
2022/01/27 12:29:30;;;;;;;11.57;3.25;;;8.30;99.90;;;;;;4988102;28;20037;-83
2022/01/27 12:31:58;;;;;;;11.80;3.55;;;8.40;99.90;;;;;;4988604;28;20041;-85
2022/01/27 12:34:27;;;;;;;20.27;3.47;;;8.50;99.90;;;;;;5005984;28;20025;-86
2022/01/27 12:36:59;;;;;;;8.18;2.40;;;8.40;99.90;;;;;;4988199;28;20031;-79
2022/01/27 12:39:31;;;;;;;7.22;2.38;;;8.30;99.90;;;;;;5005199;28;20034;-81
2022/01/27 12:42:00;;;;;;;3.10;1.63;;;8.30;99.90;;;;;;4987726;28;20042;-80
2022/01/27 12:44:28;;;;;;;7.38;1.92;;;8.20;99.90;;;;;;4987601;28;20022;-78
2022/01/27 12:47:14;;;;;;;27.17;3.53;;;8.20;99.90;;;;;;5005233;28;20033;-79
2022/01/27 12:49:46;;;;;;;13.80;2.45;;;8.30;99.90;;;;;;4987793;28;20042;-80
2022/01/27 12:52:24;;;;;;;16.40;2.80;;;8.70;99.90;;;;;;5004878;28;20030;-83
2022/01/27 12:54:51;;;;;;;18.48;2.30;;;8.80;99.90;;;;;;5005341;28;20038;-82
2022/01/27 12:57:25;;;;;;;11.52;2.47;;;8.60;99.90;;;;;;5004899;28;20033;-75
2022/01/27 12:59:52;;;;;;;;;;;8.50;99.90;;;;;;4988134;28;20113;-75
2022/01/27 13:02:20;;;;;;;18.13;2.40;;;8.70;99.90;;;;;;5004836;28;19978;-78
2022/01/27 13:04:47;;;;;;;11.02;2.45;;;8.70;99.90;;;;;;5004830;28;20018;-77
2022/01/27 13:07:14;;;;;;;16.27;2.10;;;8.60;99.90;;;;;;5004917;28;20509;-78
2022/01/27 13:09:40;;;;;;;4.30;1.98;;;8.60;99.90;;;;;;5004583;28;20088;-78
2022/01/27 13:12:24;;;;;;;9.50;2.55;;;8.70;99.90;;;;;;4987457;28;20085;-77
2022/01/27 13:14:50;;;;;;;18.70;2.63;;;8.60;99.90;;;;;;4987170;28;20117;-75
2022/01/27 13:17:27;;;;;;;7.32;1.50;;;8.60;99.90;;;;;;5003662;28;20034;-78
2022/01/27 13:19:58;;;;;;;11.27;2.78;;;8.60;99.90;;;;;;5003556;28;20015;-77
2022/01/27 13:22:31;;;;;;;6.32;1.85;;;8.60;99.90;;;;;;5002716;28;20026;-78
2022/01/27 13:24:58;;;;;;;16.13;2.23;;;8.50;99.90;;;;;;4984306;28;20775;-76
2022/01/27 13:27:24;;;;;;;6.28;1.27;;;8.40;99.90;;;;;;4991651;28;20384;-76
2022/01/27 13:29:50;;;;;;;5.45;1.42;;;8.40;99.90;;;;;;5005928;28;20053;-78
2022/01/27 13:32:16;;;;;;;5.40;2.47;;;8.40;99.90;;;;;;5024397;28;20100;-76
2022/01/27 13:34:47;;;;;;;9.77;2.60;;;8.40;99.90;;;;;;5006395;28;20030;-78
2022/01/27 13:37:30;;;;;;;9.25;1.95;;;8.40;99.90;;;;;;5024517;28;20029;-77
2022/01/27 13:42:22;;;;;;;5.13;1.75;;;8.50;99.90;;;;;;5024258;28;20034;-74
2022/01/27 13:44:55;;;;;;;11.60;1.73;;;8.40;99.90;;;;;;5023981;28;20087;-76
2022/01/27 13:47:34;;;;;;;6.65;1.20;;;8.50;99.90;;;;;;4985610;28;20084;-73
2022/01/27 13:50:20;;;;;;;12.02;2.78;;;8.40;99.90;;;;;;4986247;28;20035;-76
2022/01/27 13:52:49;;;;;;;21.17;2.85;;;8.40;99.90;;;;;;5002641;28;20082;-76
2022/01/27 13:55:21;;;;;;;10.43;1.25;;;8.40;99.90;;;;;;5001940;28;20030;-76